Time;durP1;ratioP1;P1;durP2;ratioP2;P2;SDS_P1;SDS_P2;PMS_P1;PMS_P2;Temp;Humidity;BMP_temperature;BMP_pressure;BME280_temperature;BME280_humidity;BME280_pressure;Samples;Min_cycle;Max_cycle;Signal;HPM_P1;HPM_P2
2022/10/09 00:00:39;;;;;;;22.98;14.40;;;;;;;4.06;100.00;102448.53;5135477;27;20039;-43
2022/10/09 00:03:05;;;;;;;34.75;15.70;;;;;;;4.10;100.00;102448.00;5136519;27;20080;-46
2022/10/09 00:05:30;;;;;;;31.63;15.60;;;;;;;4.06;100.00;102453.63;5136236;27;20388;-44
2022/10/09 00:07:56;;;;;;;31.40;16.52;;;;;;;4.13;100.00;102458.44;5135806;27;20019;-43
2022/10/09 00:10:21;;;;;;;26.40;15.07;;;;;;;4.11;100.00;102454.91;5136597;27;20026;-43
2022/10/09 00:12:46;;;;;;;27.67;14.70;;;;;;;4.03;100.00;102455.91;5136051;27;20370;-43
2022/10/09 00:15:12;;;;;;;29.05;15.60;;;;;;;4.05;100.00;102462.91;5135601;27;20050;-44
2022/10/09 00:17:37;;;;;;;33.78;16.65;;;;;;;4.05;100.00;102467.16;5135968;27;20099;-43
2022/10/09 00:20:04;;;;;;;28.17;15.35;;;;;;;4.02;100.00;102456.69;5136050;27;20038;-43
2022/10/09 00:22:29;;;;;;;37.75;15.82;;;;;;;4.00;100.00;102456.56;5135240;27;20083;-44
2022/10/09 00:24:54;;;;;;;24.52;13.85;;;;;;;3.93;100.00;102457.72;5136112;27;20424;-44
2022/10/09 00:27:23;;;;;;;27.42;14.75;;;;;;;3.79;100.00;102461.66;5136400;27;20031;-44
2022/10/09 00:29:49;;;;;;;25.38;13.75;;;;;;;3.70;100.00;102457.47;5134945;27;20020;-44
2022/10/09 00:32:14;;;;;;;26.90;14.45;;;;;;;3.72;100.00;102467.03;5135875;27;20435;-43
2022/10/09 00:34:41;;;;;;;27.90;14.52;;;;;;;3.76;100.00;102463.97;5135824;27;20030;-44
2022/10/09 00:37:06;;;;;;;21.27;13.93;;;;;;;3.70;100.00;102462.56;5135235;27;20023;-44
2022/10/09 00:39:31;;;;;;;30.40;15.15;;;;;;;3.71;100.00;102469.47;5135575;27;20493;-46
2022/10/09 00:41:57;;;;;;;31.92;15.10;;;;;;;3.67;100.00;102458.09;5135123;27;20019;-44
2022/10/09 00:44:58;;;;;;;26.27;14.43;;;;;;;3.66;100.00;102461.41;5135635;27;20031;-45
2022/10/09 00:47:35;;;;;;;28.88;14.65;;;;;;;3.57;100.00;102456.44;5135554;27;20401;-44
2022/10/09 00:50:12;;;;;;;31.70;16.90;;;;;;;3.65;100.00;102459.63;5134902;27;20023;-43
2022/10/09 00:52:38;;;;;;;33.13;16.57;;;;;;;3.66;100.00;102460.53;5134404;27;20034;-45
2022/10/09 00:55:05;;;;;;;29.90;15.88;;;;;;;3.74;100.00;102459.50;5135642;27;20273;-43
2022/10/09 00:57:32;;;;;;;33.97;18.00;;;;;;;3.77;100.00;102463.22;5134502;27;20068;-44
2022/10/09 01:00:01;;;;;;;35.83;15.90;;;;;;;3.70;100.00;102463.44;5135194;27;20501;-45
2022/10/09 01:02:26;;;;;;;22.70;13.65;;;;;;;3.69;100.00;102455.69;5135222;27;20377;-43
2022/10/09 01:04:52;;;;;;;26.65;14.10;;;;;;;3.72;100.00;102450.81;5134527;27;20509;-44
2022/10/09 01:07:28;;;;;;;27.25;14.52;;;;;;;3.73;100.00;102452.63;5135346;27;20482;-43
2022/10/09 01:10:12;;;;;;;29.13;15.30;;;;;;;3.74;100.00;102455.28;5134957;27;20109;-45
2022/10/09 01:12:59;;;;;;;26.15;13.75;;;;;;;3.74;100.00;102444.22;5134934;27;20512;-44
2022/10/09 01:15:37;;;;;;;31.58;13.90;;;;;;;3.72;100.00;102450.81;5135203;27;20023;-44
2022/10/09 01:18:50;;;;;;;31.58;14.27;;;;;;;3.78;100.00;102447.16;5134354;27;20404;-43
2022/10/09 01:21:32;;;;;;;23.45;12.75;;;;;;;3.72;100.00;102440.63;5125770;27;20108;-44
2022/10/09 01:24:22;;;;;;;25.10;13.57;;;;;;;3.65;100.00;102449.44;5135012;27;20027;-43
2022/10/09 01:27:14;;;;;;;25.75;12.27;;;;;;;3.56;100.00;102444.44;5134796;27;20027;-43
2022/10/09 01:29:47;;;;;;;24.52;12.57;;;;;;;3.60;100.00;102443.97;5134864;27;20023;-43
2022/10/09 01:32:21;;;;;;;24.83;13.73;;;;;;;3.61;100.00;102437.19;5134149;27;20030;-45
2022/10/09 01:34:49;;;;;;;26.52;13.60;;;;;;;3.60;100.00;102441.41;5134569;27;20053;-44
2022/10/09 01:37:17;;;;;;;26.88;14.00;;;;;;;3.60;100.00;102433.75;5134829;27;20075;-43
2022/10/09 01:39:44;;;;;;;41.90;13.85;;;;;;;3.61;100.00;102443.16;5133662;27;20105;-44
2022/10/09 01:42:13;;;;;;;29.63;14.05;;;;;;;3.62;100.00;102434.75;5134687;27;20031;-43
2022/10/09 01:44:38;;;;;;;24.23;14.05;;;;;;;3.67;100.00;102431.69;5134446;27;20023;-44
2022/10/09 01:47:05;;;;;;;26.95;14.38;;;;;;;3.60;100.00;102430.31;5133509;27;20389;-43
2022/10/09 01:49:42;;;;;;;28.73;14.90;;;;;;;3.62;100.00;102424.56;5134315;27;20019;-43
2022/10/09 01:52:14;;;;;;;27.02;12.38;;;;;;;3.54;100.00;102425.59;5134667;27;20084;-43
2022/10/09 01:54:45;;;;;;;26.98;13.88;;;;;;;3.56;100.00;102424.03;5133607;27;20386;-43
2022/10/09 01:57:17;;;;;;;26.13;14.15;;;;;;;3.59;100.00;102419.22;5134403;27;20097;-43
2022/10/09 01:59:46;;;;;;;23.27;13.57;;;;;;;3.57;100.00;102415.66;5133303;27;20030;-44
2022/10/09 02:02:11;;;;;;;22.73;11.85;;;;;;;3.47;100.00;102415.63;5133930;27;20377;-45
2022/10/09 02:04:40;;;;;;;24.20;12.23;;;;;;;3.40;100.00;102416.78;5134213;27;20026;-43
2022/10/09 02:07:06;;;;;;;20.25;11.30;;;;;;;3.37;100.00;102411.44;5133515;27;20079;-46
2022/10/09 02:09:32;;;;;;;23.50;12.18;;;;;;;3.41;100.00;102408.38;5133956;27;20023;-43
2022/10/09 02:12:03;;;;;;;25.10;12.20;;;;;;;3.39;100.00;102411.56;5134157;27;20155;-46
2022/10/09 02:14:28;;;;;;;27.55;12.18;;;;;;;3.27;100.00;102407.22;5133160;27;20534;-43
2022/10/09 02:17:05;;;;;;;24.25;12.30;;;;;;;3.27;100.00;102409.75;5133957;27;20098;-44
2022/10/09 02:19:45;;;;;;;23.38;12.30;;;;;;;3.23;100.00;102406.84;5134168;27;20062;-44
2022/10/09 02:22:16;;;;;;;20.67;11.60;;;;;;;3.11;100.00;102402.50;5133375;27;20030;-43
2022/10/09 02:24:42;;;;;;;26.27;12.82;;;;;;;3.16;100.00;102402.88;5133826;27;20072;-46
2022/10/09 02:27:09;;;;;;;20.98;13.15;;;;;;;3.19;100.00;102402.22;5133864;27;20019;-43
2022/10/09 02:29:36;;;;;;;27.77;14.45;;;;;;;3.17;100.00;102404.66;5133088;28;20030;-43
2022/10/09 02:32:02;;;;;;;30.90;16.55;;;;;;;3.19;100.00;102395.50;5133817;28;20470;-44
2022/10/09 02:34:27;;;;;;;29.02;17.80;;;;;;;3.25;100.00;102393.47;5133437;28;20034;-43
2022/10/09 02:36:52;;;;;;;25.10;14.98;;;;;;;3.05;100.00;102391.78;5133480;28;20377;-44
2022/10/09 02:39:18;;;;;;;23.10;15.45;;;;;;;3.11;100.00;102391.41;5133965;28;20038;-45
2022/10/09 02:41:43;;;;;;;23.65;14.63;;;;;;;2.97;100.00;102391.13;5132684;28;20073;-44
2022/10/09 02:44:08;;;;;;;24.23;14.35;;;;;;;2.97;100.00;102386.03;5134228;28;20031;-44
2022/10/09 02:46:34;;;;;;;25.25;15.32;;;;;;;2.91;100.00;102385.50;5133338;28;20188;-43
2022/10/09 02:48:59;;;;;;;25.42;14.77;;;;;;;2.94;100.00;102388.31;5133357;28;20034;-44
2022/10/09 02:51:25;;;;;;;28.83;17.60;;;;;;;2.93;100.00;102391.63;5133744;28;20029;-45
2022/10/09 02:53:52;;;;;;;36.90;20.88;;;;;;;2.99;100.00;102383.59;5133485;28;20092;-43
2022/10/09 02:56:18;;;;;;;25.47;16.53;;;;;;;2.96;100.00;102386.78;5132834;28;20030;-43
2022/10/09 02:58:44;;;;;;;27.90;18.15;;;;;;;2.90;100.00;102380.28;5133289;28;20493;-43
2022/10/09 03:01:09;;;;;;;26.30;17.77;;;;;;;2.94;100.00;102380.69;5133429;28;20031;-47
2022/10/09 03:03:34;;;;;;;35.22;21.15;;;;;;;2.95;100.00;102382.44;5132609;28;20029;-43
2022/10/09 03:06:02;;;;;;;34.72;21.25;;;;;;;2.98;100.00;102386.91;5133605;28;20023;-45
2022/10/09 03:08:28;;;;;;;30.60;19.58;;;;;;;2.97;100.00;102380.94;5133478;28;20027;-43
2022/10/09 03:10:54;;;;;;;33.38;20.25;;;;;;;2.97;100.00;102380.06;5132475;28;20048;-44
2022/10/09 03:13:19;;;;;;;32.45;19.38;;;;;;;2.97;100.00;102383.47;5133470;28;20482;-44
2022/10/09 03:15:44;;;;;;;30.85;18.83;;;;;;;2.93;100.00;102381.44;5136188;27;20482;-43
2022/10/09 03:18:10;;;;;;;28.92;18.40;;;;;;;2.98;100.00;102384.38;5136609;27;20027;-43
2022/10/09 03:20:37;;;;;;;40.05;18.92;;;;;;;3.05;100.00;102384.13;5137167;27;20031;-43
2022/10/09 03:23:02;;;;;;;31.60;19.40;;;;;;;3.08;100.00;102380.97;5137323;27;20027;-45
2022/10/09 03:25:27;;;;;;;28.23;17.70;;;;;;;3.11;100.00;102368.47;5136471;27;20470;-43
2022/10/09 03:27:52;;;;;;;28.77;17.52;;;;;;;3.15;100.00;102378.19;5136970;27;20027;-44
2022/10/09 03:30:17;;;;;;;28.55;17.77;;;;;;;3.06;100.00;102379.91;5137287;27;20489;-43
2022/10/09 03:32:43;;;;;;;24.90;17.13;;;;;;;3.02;100.00;102370.25;5136025;27;20115;-44
2022/10/09 03:35:08;;;;;;;31.10;17.73;;;;;;;3.09;100.00;102373.44;5137162;27;20027;-45
2022/10/09 03:37:33;;;;;;;26.98;17.00;;;;;;;3.07;100.00;102364.78;5136879;27;20023;-45
2022/10/09 03:39:59;;;;;;;28.90;15.48;;;;;;;3.02;100.00;102371.16;5136605;27;20027;-43
2022/10/09 03:42:24;;;;;;;26.63;15.82;;;;;;;2.94;100.00;102373.06;5136958;27;20114;-43
2022/10/09 03:44:49;;;;;;;22.35;14.90;;;;;;;2.93;100.00;102361.06;5136104;27;20035;-42
2022/10/09 03:47:15;;;;;;;28.05;15.18;;;;;;;3.03;100.00;102372.91;5136702;27;20039;-43
2022/10/09 03:49:41;;;;;;;26.33;15.63;;;;;;;2.96;100.00;102366.41;5136568;27;20042;-43
2022/10/09 03:52:06;;;;;;;21.38;13.55;;;;;;;2.88;100.00;102369.97;5136028;27;20516;-43
2022/10/09 03:54:31;;;;;;;22.08;13.40;;;;;;;2.75;100.00;102364.56;5136346;27;20019;-44
2022/10/09 03:56:56;;;;;;;24.33;13.68;;;;;;;2.70;100.00;102365.81;5136922;27;20023;-43
2022/10/09 03:59:22;;;;;;;22.15;12.50;;;;;;;2.70;100.00;102374.38;5135963;27;20023;-45
2022/10/09 04:01:47;;;;;;;22.00;13.13;;;;;;;2.60;100.00;102375.22;5136515;27;20019;-43
2022/10/09 04:04:12;;;;;;;20.80;12.45;;;;;;;2.56;100.00;102373.19;5136660;27;20019;-45
2022/10/09 04:06:37;;;;;;;19.00;12.85;;;;;;;2.40;100.00;102377.69;5135494;27;20359;-45
2022/10/09 04:09:03;;;;;;;23.15;13.50;;;;;;;2.47;100.00;102380.03;5136384;27;20027;-43
2022/10/09 04:11:28;;;;;;;21.58;13.27;;;;;;;2.39;100.00;102378.44;5136562;27;20466;-43
2022/10/09 04:13:53;;;;;;;25.05;14.30;;;;;;;2.42;100.00;102378.72;5135462;27;20474;-44
2022/10/09 04:16:19;;;;;;;23.50;15.00;;;;;;;2.42;100.00;102378.72;5136493;27;20110;-43
2022/10/09 04:18:46;;;;;;;23.50;14.80;;;;;;;2.33;100.00;102377.94;5136161;27;20027;-44
2022/10/09 04:21:12;;;;;;;21.95;13.50;;;;;;;2.30;100.00;102369.25;5135267;27;20110;-46
2022/10/09 04:23:37;;;;;;;22.13;14.35;;;;;;;2.32;100.00;102377.03;5135805;27;20110;-44
2022/10/09 04:26:03;;;;;;;22.15;13.90;;;;;;;2.35;100.00;102371.31;5136205;27;20464;-44
2022/10/09 04:28:30;;;;;;;22.17;14.27;;;;;;;2.38;100.00;102377.56;5135390;27;20488;-43
2022/10/09 04:30:56;;;;;;;20.73;13.02;;;;;;;2.29;100.00;102382.72;5136265;27;20023;-44
2022/10/09 04:33:22;;;;;;;19.17;12.65;;;;;;;2.22;100.00;102380.44;5136106;27;20026;-43
2022/10/09 04:35:50;;;;;;;18.67;12.27;;;;;;;2.21;100.00;102378.63;5134836;27;20019;-45
2022/10/09 04:38:16;;;;;;;22.50;12.48;;;;;;;2.05;100.00;102376.38;5135776;27;20024;-43
2022/10/09 04:40:41;;;;;;;20.77;13.82;;;;;;;2.16;100.00;102367.16;5135698;27;20038;-43
2022/10/09 04:43:07;;;;;;;22.38;14.43;;;;;;;2.17;100.00;102371.50;5135140;27;20023;-45
2022/10/09 04:45:32;;;;;;;23.13;14.95;;;;;;;2.24;100.00;102370.38;5135525;27;20028;-43
2022/10/09 04:47:57;;;;;;;23.58;14.95;;;;;;;2.19;100.00;102361.44;5135434;27;20039;-43
2022/10/09 04:50:23;;;;;;;23.27;13.23;;;;;;;2.14;100.00;102364.50;5134789;27;20023;-43
2022/10/09 04:52:48;;;;;;;20.10;13.23;;;;;;;2.06;100.00;102370.53;5135345;27;20120;-43
2022/10/09 04:55:13;;;;;;;22.63;13.00;;;;;;;1.93;100.00;102360.91;5134874;27;20043;-45
2022/10/09 04:57:39;;;;;;;18.20;12.23;;;;;;;1.96;100.00;102366.28;5135432;27;20031;-44
2022/10/09 05:00:05;;;;;;;18.05;12.18;;;;;;;1.90;100.00;102369.91;5135297;27;20081;-44
2022/10/09 05:02:30;;;;;;;20.70;13.23;;;;;;;1.89;100.00;102358.88;5134706;27;20364;-43
2022/10/09 05:04:56;;;;;;;23.92;14.50;;;;;;;1.95;100.00;102361.03;5135387;27;20080;-43
2022/10/09 05:07:22;;;;;;;20.27;12.50;;;;;;;1.89;100.00;102356.31;5135212;27;20458;-44
2022/10/09 05:09:47;;;;;;;24.90;13.10;;;;;;;1.84;100.00;102355.03;5134344;27;20029;-44
2022/10/09 05:12:12;;;;;;;23.00;13.70;;;;;;;1.91;100.00;102349.75;5135433;27;20023;-43
2022/10/09 05:14:37;;;;;;;18.98;13.60;;;;;;;1.88;100.00;102346.91;5134985;27;20045;-43
2022/10/09 05:17:04;;;;;;;15.45;11.73;;;;;;;1.78;100.00;102346.84;5134384;27;20047;-43
2022/10/09 05:19:30;;;;;;;22.48;12.07;;;;;;;1.74;100.00;102348.25;5134960;27;20031;-44
2022/10/09 05:21:55;;;;;;;22.73;13.52;;;;;;;1.73;100.00;102343.00;5135001;27;20030;-43
2022/10/09 05:24:20;;;;;;;21.45;14.43;;;;;;;1.81;100.00;102339.50;5134110;27;20027;-43
2022/10/09 05:26:46;;;;;;;26.75;16.55;;;;;;;1.99;100.00;102335.16;5134746;27;20474;-47
2022/10/09 05:29:11;;;;;;;24.27;15.57;;;;;;;2.00;100.00;102341.13;5134860;27;20037;-45
2022/10/09 05:31:36;;;;;;;24.42;15.57;;;;;;;1.80;100.00;102342.81;5133824;27;20374;-43
2022/10/09 05:34:02;;;;;;;24.45;15.13;;;;;;;1.83;100.00;102343.06;5134808;27;20030;-43
2022/10/09 05:36:28;;;;;;;26.55;15.40;;;;;;;1.90;100.00;102334.31;5134639;27;20059;-46
2022/10/09 05:38:54;;;;;;;31.67;15.70;;;;;;;1.87;100.00;102341.69;5132960;27;20057;-49
2022/10/09 05:41:20;;;;;;;28.05;16.23;;;;;;;1.80;100.00;102343.69;5134826;27;20531;-48
2022/10/09 05:43:47;;;;;;;21.95;14.60;;;;;;;1.83;100.00;102343.06;5134423;27;20106;-49
2022/10/09 05:46:22;;;;;;;23.23;15.25;;;;;;;1.92;100.00;102348.06;5133624;27;20064;-49
2022/10/09 05:48:59;;;;;;;27.38;16.90;;;;;;;1.92;100.00;102348.06;5134309;27;20031;-48
2022/10/09 05:51:42;;;;;;;25.05;15.75;;;;;;;1.98;100.00;102349.50;5133860;27;20076;-44
2022/10/09 05:54:12;;;;;;;21.63;15.02;;;;;;;1.89;100.00;102338.53;5134559;27;20027;-48
2022/10/09 05:56:38;;;;;;;31.15;15.20;;;;;;;1.83;100.00;102343.06;5134251;27;20019;-49
2022/10/09 05:59:09;;;;;;;24.80;15.77;;;;;;;1.90;100.00;102345.41;5133433;27;20485;-47
2022/10/09 06:01:37;;;;;;;28.23;17.45;;;;;;;1.93;100.00;102340.56;5133882;27;20041;-48
2022/10/09 06:04:03;;;;;;;30.42;16.05;;;;;;;1.92;100.00;102333.69;5134440;27;20110;-49
2022/10/09 06:06:30;;;;;;;24.85;14.93;;;;;;;1.90;100.00;102344.50;5133482;27;20031;-49
2022/10/09 06:08:57;;;;;;;26.42;15.30;;;;;;;1.86;100.00;102337.34;5134414;27;20084;-48
2022/10/09 06:11:27;;;;;;;27.02;16.58;;;;;;;1.99;100.00;102342.78;5134310;27;20015;-48
2022/10/09 06:13:54;;;;;;;25.10;15.80;;;;;;;1.96;100.00;102345.03;5133119;27;20056;-49
2022/10/09 06:16:19;;;;;;;24.73;15.88;;;;;;;1.96;100.00;102340.88;5133985;27;20035;-47
2022/10/09 06:18:46;;;;;;;26.40;15.50;;;;;;;1.95;100.00;102343.25;5133914;27;20071;-48
2022/10/09 06:21:12;;;;;;;20.33;15.63;;;;;;;1.96;100.00;102350.13;5133110;27;20473;-48
2022/10/09 06:23:38;;;;;;;21.15;15.38;;;;;;;1.93;100.00;102343.13;5133801;27;20102;-49
2022/10/09 06:26:10;;;;;;;29.80;17.33;;;;;;;2.02;100.00;102348.13;5133992;27;20046;-46
2022/10/09 06:28:35;;;;;;;22.73;15.80;;;;;;;2.00;100.00;102346.22;5133023;28;20027;-48
2022/10/09 06:31:09;;;;;;;26.42;15.63;;;;;;;2.04;100.00;102353.34;5134071;28;20089;-49
2022/10/09 06:33:37;;;;;;;28.42;16.83;;;;;;;2.08;100.00;102345.22;5133298;28;20019;-45
2022/10/09 06:36:04;;;;;;;;;;;;;;;2.13;100.00;102352.53;5134370;28;20023;-46
2022/10/09 06:38:29;;;;;;;28.15;17.40;;;;;;;2.21;100.00;102348.13;5133965;28;19918;-49
2022/10/09 06:40:54;;;;;;;28.27;17.35;;;;;;;2.20;100.00;102353.94;5132725;28;20039;-47
2022/10/09 06:43:20;;;;;;;24.25;17.30;;;;;;;2.26;100.00;102346.88;5133753;28;20023;-48
2022/10/09 06:45:45;;;;;;;23.50;17.95;;;;;;;2.36;100.00;102345.13;5133733;28;20062;-49
2022/10/09 06:48:10;;;;;;;26.42;18.42;;;;;;;2.45;100.00;102348.44;5132691;27;20122;-44
2022/10/09 06:50:36;;;;;;;28.42;18.88;;;;;;;2.48;100.00;102346.19;5136205;27;20477;-49
2022/10/09 06:53:04;;;;;;;27.38;18.02;;;;;;;2.51;100.00;102343.91;5137920;27;20023;-46
2022/10/09 06:55:31;;;;;;;32.58;19.33;;;;;;;2.60;100.00;102348.91;5136926;27;20466;-48
2022/10/09 06:57:57;;;;;;;32.72;20.60;;;;;;;2.68;100.00;102349.56;5137844;27;20042;-47
2022/10/09 07:00:22;;;;;;;27.98;20.30;;;;;;;2.78;100.00;102340.28;5137910;27;20058;-49
2022/10/09 07:02:48;;;;;;;33.58;22.83;;;;;;;2.94;100.00;102351.75;5136803;27;20024;-49
2022/10/09 07:05:13;;;;;;;37.63;25.80;;;;;;;3.13;100.00;102346.56;5137676;27;20470;-49
2022/10/09 07:07:40;;;;;;;42.83;28.40;;;;;;;3.21;100.00;102348.09;5137376;27;20173;-47
2022/10/09 07:10:05;;;;;;;42.90;31.05;;;;;;;3.50;100.00;102349.63;5136765;27;20019;-46
2022/10/09 07:12:33;;;;;;;50.25;35.38;;;;;;;3.74;100.00;102352.41;5137178;27;20489;-48
2022/10/09 07:14:58;;;;;;;49.30;34.35;;;;;;;3.88;100.00;102350.97;5137656;27;20019;-49
2022/10/09 07:17:25;;;;;;;45.28;30.67;;;;;;;4.00;100.00;102357.06;5136600;27;20041;-47
2022/10/09 07:19:50;;;;;;;45.83;32.35;;;;;;;4.22;100.00;102346.94;5137102;27;20117;-49
2022/10/09 07:22:16;;;;;;;43.90;33.28;;;;;;;4.40;100.00;102351.69;5137374;27;20102;-49
2022/10/09 07:24:41;;;;;;;38.97;29.92;;;;;;;4.58;100.00;102342.94;5136182;27;20039;-49
2022/10/09 07:27:06;;;;;;;42.85;30.02;;;;;;;4.78;100.00;102346.16;5137078;27;20031;-46
2022/10/09 07:29:32;;;;;;;40.30;27.58;;;;;;;4.96;100.00;102344.13;5137214;27;20466;-47
2022/10/09 07:31:57;;;;;;;37.50;26.30;;;;;;;5.10;100.00;102340.06;5136574;27;20046;-47
2022/10/09 07:34:22;;;;;;;33.00;23.98;;;;;;;5.32;100.00;102341.66;5137256;27;20042;-47
2022/10/09 07:36:47;;;;;;;35.58;23.38;;;;;;;5.42;100.00;102342.47;5136875;27;20063;-47
2022/10/09 07:39:13;;;;;;;36.70;22.02;;;;;;;5.59;100.00;102341.16;5135937;27;20031;-50
2022/10/09 07:41:38;;;;;;;35.45;22.70;;;;;;;5.85;100.00;102341.28;5136637;27;20362;-47
2022/10/09 07:44:03;;;;;;;34.17;22.70;;;;;;;5.96;100.00;102336.97;5136347;27;20458;-48
2022/10/09 07:46:29;;;;;;;37.55;22.17;;;;;;;6.19;100.00;102341.22;5136855;27;20043;-48
2022/10/09 07:48:54;;;;;;;36.53;21.95;;;;;;;6.28;100.00;102338.44;5136858;27;20037;-49
2022/10/09 07:51:24;;;;;;;39.17;20.85;;;;;;;6.41;100.00;102338.50;5136096;27;20031;-49
2022/10/09 07:53:50;;;;;;;28.85;18.55;;;;;;;6.53;100.00;102333.34;5136635;27;20669;-50
2022/10/09 07:56:18;;;;;;;30.50;18.70;;;;;;;6.67;100.00;102342.00;5136547;27;20474;-46
2022/10/09 07:58:48;;;;;;;;;;;;;;;6.75;100.00;102341.75;5136258;27;20027;-49
2022/10/09 08:01:13;;;;;;;29.52;19.20;;;;;;;6.94;100.00;102343.00;5136185;27;19912;-48
2022/10/09 08:03:39;;;;;;;31.30;19.67;;;;;;;7.22;100.00;102332.94;5136339;27;20068;-46
2022/10/09 08:06:04;;;;;;;33.25;17.58;;;;;;;7.39;100.00;102339.19;5135790;27;20106;-50
2022/10/09 08:08:30;;;;;;;26.83;16.38;;;;;;;7.45;100.00;102330.13;5136398;27;20052;-49
2022/10/09 08:10:55;;;;;;;33.42;16.38;;;;;;;7.65;100.00;102324.63;5136287;27;20054;-47
2022/10/09 08:13:21;;;;;;;32.15;16.73;;;;;;;7.70;100.00;102332.66;5135793;27;20144;-49
2022/10/09 08:15:46;;;;;;;32.53;17.63;;;;;;;7.90;100.00;102327.13;5136196;27;20023;-47
2022/10/09 08:18:12;;;;;;;32.15;16.92;;;;;;;8.12;100.00;102325.94;5136335;27;20058;-44
2022/10/09 08:20:38;;;;;;;21.27;14.73;;;;;;;8.14;100.00;102320.91;5135124;27;20107;-49
2022/10/09 08:23:03;;;;;;;36.45;16.25;;;;;;;8.40;100.00;102317.38;5136170;27;20035;-49
2022/10/09 08:25:32;;;;;;;31.65;15.98;;;;;;;8.36;100.00;102320.56;5136057;27;20047;-49
2022/10/09 08:27:57;;;;;;;26.67;15.20;;;;;;;8.55;100.00;102325.19;5135468;27;20026;-48
2022/10/09 08:30:23;;;;;;;32.55;16.70;;;;;;;8.65;99.89;102313.78;5136070;27;20397;-47
2022/10/09 08:32:48;;;;;;;32.63;17.63;;;;;;;8.97;100.00;102318.28;5135908;27;20027;-49
2022/10/09 08:35:13;;;;;;;30.75;16.15;;;;;;;9.05;100.00;102314.50;5135240;27;20027;-48
2022/10/09 08:37:38;;;;;;;26.95;16.23;;;;;;;9.20;97.56;102322.22;5135648;27;20027;-49
2022/10/09 08:40:05;;;;;;;30.17;15.38;;;;;;;9.30;95.92;102317.66;5135995;27;20030;-48
2022/10/09 08:42:42;;;;;;;27.55;16.00;;;;;;;9.49;97.01;102315.34;5134767;27;20102;-49
2022/10/09 08:45:18;;;;;;;35.60;16.08;;;;;;;9.64;95.55;102309.28;5135997;27;20072;-49
2022/10/09 08:47:55;;;;;;;33.45;16.00;;;;;;;9.72;94.05;102302.88;5134513;27;20043;-47
2022/10/09 08:50:27;;;;;;;28.52;15.85;;;;;;;9.95;96.24;102300.72;5135630;27;20030;-48
2022/10/09 08:53:06;;;;;;;36.17;16.40;;;;;;;10.24;96.73;102294.59;5135579;27;20076;-47
2022/10/09 08:55:49;;;;;;;29.67;17.45;;;;;;;10.63;100.00;102297.53;5134609;27;20028;-45
2022/10/09 08:58:17;;;;;;;29.08;14.65;;;;;;;10.69;95.30;102290.13;5135502;27;20035;-48
2022/10/09 09:00:53;;;;;;;28.13;14.60;;;;;;;10.97;91.75;102293.25;5135112;27;20106;-48
2022/10/09 09:03:32;;;;;;;25.80;13.68;;;;;;;11.15;88.67;102285.56;5134772;27;20019;-48
2022/10/09 09:06:17;;;;;;;24.52;13.48;;;;;;;11.34;87.68;102282.22;5135591;27;20106;-47
2022/10/09 09:08:59;;;;;;;25.02;11.90;;;;;;;11.48;86.17;102281.19;5134365;27;20031;-44
2022/10/09 09:11:37;;;;;;;29.02;12.02;;;;;;;11.56;83.34;102280.69;5135351;27;20023;-50
2022/10/09 09:14:17;;;;;;;22.10;11.38;;;;;;;11.76;83.08;102269.63;5134728;27;20035;-50
2022/10/09 09:16:55;;;;;;;21.67;11.52;;;;;;;12.11;81.11;102280.75;5134163;27;20027;-49
2022/10/09 09:19:53;;;;;;;23.77;11.38;;;;;;;12.55;80.14;102274.94;5134924;27;20034;-49
2022/10/09 09:22:20;;;;;;;22.05;9.15;;;;;;;12.73;74.00;102273.16;5135119;27;20152;-50
2022/10/09 09:24:50;;;;;;;23.88;10.18;;;;;;;13.13;72.95;102269.69;5133864;27;20489;-49
2022/10/09 09:27:19;;;;;;;26.70;9.50;;;;;;;13.33;70.74;102260.13;5135086;27;20090;-49
2022/10/09 09:30:08;;;;;;;19.98;9.52;;;;;;;13.72;70.48;102258.25;5133791;27;20023;-50
2022/10/09 09:32:34;;;;;;;25.20;9.80;;;;;;;13.88;66.97;102246.75;5134707;27;20111;-50
2022/10/09 09:35:15;;;;;;;20.38;11.18;;;;;;;14.22;68.83;102246.34;5134881;27;20055;-49
2022/10/09 09:37:40;;;;;;;20.90;9.48;;;;;;;14.54;64.77;102240.53;5133847;27;20031;-48
2022/10/09 09:40:13;;;;;;;17.05;9.13;;;;;;;14.84;64.07;102242.50;5134573;27;20072;-48
2022/10/09 09:42:39;;;;;;;19.70;8.02;;;;;;;14.92;61.08;102233.25;5134283;27;20359;-50
2022/10/09 09:45:15;;;;;;;14.05;8.35;;;;;;;15.13;62.64;102233.97;5133727;27;20019;-49
2022/10/09 09:47:46;;;;;;;19.58;8.65;;;;;;;15.21;60.48;102225.53;5134158;27;20130;-49
2022/10/09 09:50:11;;;;;;;24.38;9.52;;;;;;;15.49;61.31;102222.09;5134620;27;20019;-45
2022/10/09 09:52:42;;;;;;;18.85;9.38;;;;;;;15.66;59.70;102229.53;5133549;27;20034;-50
2022/10/09 09:55:23;;;;;;;19.50;8.95;;;;;;;16.36;61.26;102217.75;5134284;27;20452;-50
2022/10/09 09:57:49;;;;;;;18.15;8.27;;;;;;;16.37;56.03;102216.94;5133566;27;20019;-49
2022/10/09 10:00:14;;;;;;;24.88;8.65;;;;;;;16.62;54.94;102204.56;5134143;27;20030;-47
2022/10/09 10:02:39;;;;;;;22.63;8.83;;;;;;;16.81;55.76;102202.44;5133953;27;20594;-47
2022/10/09 10:05:16;;;;;;;18.00;8.73;;;;;;;16.90;56.61;102205.25;5133499;27;20277;-44
2022/10/09 10:07:43;;;;;;;18.90;8.20;;;;;;;17.09;55.58;102194.53;5133934;27;20374;-49
2022/10/09 10:10:08;;;;;;;19.10;7.97;;;;;;;17.21;51.71;102203.44;5134298;27;20027;-50
2022/10/09 10:12:39;;;;;;;19.90;8.07;;;;;;;17.10;53.54;102200.59;5133161;27;20050;-50
2022/10/09 10:15:05;;;;;;;19.92;8.32;;;;;;;17.13;51.56;102197.19;5134124;27;20060;-49
2022/10/09 10:17:33;;;;;;;20.15;9.20;;;;;;;17.13;51.03;102199.78;5133685;27;20031;-45
2022/10/09 10:20:05;;;;;;;15.77;7.97;;;;;;;17.06;52.56;102196.16;5133162;27;20055;-48
2022/10/09 10:22:31;;;;;;;22.25;8.15;;;;;;;17.36;51.84;102187.31;5134121;27;20034;-47
2022/10/09 10:24:58;;;;;;;18.83;8.52;;;;;;;17.64;51.10;102186.19;5133799;27;20023;-50
2022/10/09 10:27:30;;;;;;;16.90;8.13;;;;;;;17.38;50.67;102183.03;5133292;27;20064;-49
2022/10/09 10:29:59;;;;;;;17.50;8.60;;;;;;;17.48;50.42;102191.91;5134037;28;20379;-48
2022/10/09 10:32:33;;;;;;;18.10;8.50;;;;;;;17.65;50.88;102181.84;5133752;28;20027;-47
2022/10/09 10:35:09;;;;;;;17.88;7.80;;;;;;;18.14;48.91;102187.22;5133191;28;20084;-49
2022/10/09 10:37:41;;;;;;;22.33;8.27;;;;;;;17.63;49.53;102176.59;5133677;28;20019;-49
2022/10/09 10:40:19;;;;;;;18.80;7.47;;;;;;;17.48;49.94;102178.88;5132897;28;20039;-49
2022/10/09 10:43:06;;;;;;;17.88;7.25;;;;;;;17.53;50.57;102174.66;5133587;28;20035;-49
2022/10/09 10:45:48;;;;;;;21.42;7.30;;;;;;;17.49;51.68;102165.88;5133813;28;20080;-48
2022/10/09 10:48:21;;;;;;;23.77;7.32;;;;;;;17.82;49.91;102156.13;5132824;28;20036;-49
2022/10/09 10:51:00;;;;;;;20.45;7.82;;;;;;;17.89;50.30;102148.47;5133630;28;20027;-49
2022/10/09 10:53:56;;;;;;;17.83;6.80;;;;;;;18.33;49.15;102149.31;5133662;28;20163;-50
2022/10/09 10:56:46;;;;;;;15.60;7.28;;;;;;;18.63;48.18;102149.00;5091510;28;20123;-50
2022/10/09 10:59:45;;;;;;;19.00;7.25;;;;;;;18.78;48.02;102142.28;5133628;28;20081;-48
2022/10/09 11:02:36;;;;;;;18.45;6.70;;;;;;;18.53;47.86;102136.66;5132777;28;20516;-48
2022/10/09 11:05:38;;;;;;;20.70;6.63;;;;;;;18.83;47.28;102130.16;5094420;28;20051;-49
2022/10/09 11:08:15;;;;;;;21.50;7.85;;;;;;;18.59;45.81;102123.66;5132760;28;20543;-51
2022/10/09 11:10:54;;;;;;;19.05;7.05;;;;;;;18.78;45.35;102126.59;5133494;28;20027;-50
2022/10/09 11:13:32;;;;;;;16.80;6.80;;;;;;;18.64;45.10;102119.41;5115147;28;20027;-51
2022/10/09 11:16:12;;;;;;;14.68;6.57;;;;;;;18.80;45.15;102115.31;5132807;28;20055;-49
2022/10/09 11:18:57;;;;;;;19.65;6.95;;;;;;;18.97;45.34;102113.00;5133513;28;20113;-50
2022/10/09 11:21:40;;;;;;;19.75;6.90;;;;;;;19.17;45.28;102108.06;5133484;28;20023;-50